Time,TemperatureF,DewpointF,PressureIn,WindDirection,WindDirectionDegrees,WindSpeedMPH,WindSpeedGustMPH,Humidity,HourlyPrecipIn,Conditions,Clouds,dailyrainin,SoftwareType,DateUTC
2013-04-18 00:02:00,38.2,29.3,30.37,East,90,2.2,3.1,70,0.00,,,0.00,WUHU216HW,2013-04-18 07:02:00,
2013-04-18 00:07:00,38.2,28.9,30.37,East,90,1.6,3.1,69,0.00,,,0.00,WUHU216HW,2013-04-18 07:07:00,
2013-04-18 00:12:00,38.0,28.7,30.37,East,90,0.4,2.5,69,0.00,,,0.00,WUHU216HW,2013-04-18 07:12:00,
2013-04-18 00:17:00,37.8,29.0,30.37,East,90,0.4,1.6,70,0.00,,,0.00,WUHU216HW,2013-04-18 07:17:00,
2013-04-18 00:22:00,37.1,28.3,30.37,East,90,0.0,0.9,70,0.00,,,0.00,WUHU216HW,2013-04-18 07:22:00,
2013-04-18 00:27:00,36.4,27.9,30.37,East,90,0.0,0.0,71,0.00,,,0.00,WUHU216HW,2013-04-18 07:27:00,
2013-04-18 00:32:00,35.8,28.3,30.38,East,90,0.4,0.4,74,0.00,,,0.00,WUHU216HW,2013-04-18 07:32:00,
2013-04-18 00:37:00,35.5,28.6,30.37,East,90,1.1,1.1,76,0.00,,,0.00,WUHU216HW,2013-04-18 07:37:00,
2013-04-18 00:42:00,35.3,28.5,30.38,East,90,0.9,1.1,76,0.00,,,0.00,WUHU216HW,2013-04-18 07:42:00,
2013-04-18 00:47:00,35.3,28.5,30.37,East,90,1.1,1.1,76,0.00,,,0.00,WUHU216HW,2013-04-18 07:47:00,
2013-04-18 00:52:00,35.5,28.3,30.37,East,90,1.6,1.8,75,0.00,,,0.00,WUHU216HW,2013-04-18 07:52:00,
2013-04-18 00:57:00,35.6,28.1,30.37,ENE,68,2.5,2.5,74,0.00,,,0.00,WUHU216HW,2013-04-18 07:57:00,
2013-04-18 01:02:00,35.8,28.0,30.37,ENE,68,2.2,3.1,73,0.00,,,0.00,WUHU216HW,2013-04-18 08:02:00,
2013-04-18 01:07:00,35.8,28.0,30.37,ENE,68,2.9,3.1,73,0.00,,,0.00,WUHU216HW,2013-04-18 08:07:00,
2013-04-18 01:12:00,35.3,27.7,30.37,East,90,0.9,3.4,74,0.00,,,0.00,WUHU216HW,2013-04-18 08:12:00,
2013-04-18 01:17:00,34.9,27.1,30.37,East,90,0.0,3.4,73,0.00,,,0.00,WUHU216HW,2013-04-18 08:17:00,
2013-04-18 01:22:00,34.7,27.2,30.37,East,90,0.7,0.9,74,0.00,,,0.00,WUHU216HW,2013-04-18 08:22:00,
2013-04-18 01:27:00,34.4,26.6,30.37,East,90,0.0,0.9,73,0.00,,,0.00,WUHU216HW,2013-04-18 08:27:00,
2013-04-18 01:32:00,34.0,26.8,30.37,East,90,0.2,0.7,75,0.00,,,0.00,WUHU216HW,2013-04-18 08:32:00,
2013-04-18 01:37:00,33.1,27.0,30.37,East,90,0.7,0.9,78,0.00,,,0.00,WUHU216HW,2013-04-18 08:37:00,
2013-04-18 01:42:00,32.9,27.1,30.37,East,90,1.1,1.3,79,0.00,,,0.00,WUHU216HW,2013-04-18 08:42:00,
2013-04-18 01:47:00,33.5,28.3,30.37,ENE,68,2.9,2.9,81,0.00,,,0.00,WUHU216HW,2013-04-18 08:47:00,
2013-04-18 01:52:00,34.6,28.6,30.37,East,90,1.3,2.9,79,0.00,,,0.00,WUHU216HW,2013-04-18 08:52:00,
2013-04-18 01:57:00,34.2,28.0,30.37,NNE,23,0.9,2.0,78,0.00,,,0.00,WUHU216HW,2013-04-18 08:57:00,
2013-04-18 02:02:00,34.0,27.8,30.37,NNE,23,0.4,2.0,78,0.00,,,0.00,WUHU216HW,2013-04-18 09:02:00,
2013-04-18 02:07:00,33.7,27.8,30.37,ENE,68,0.7,1.1,79,0.00,,,0.00,WUHU216HW,2013-04-18 09:07:00,
2013-04-18 02:12:00,33.8,28.3,30.37,East,90,2.2,2.2,80,0.00,,,0.00,WUHU216HW,2013-04-18 09:12:00,
2013-04-18 02:17:00,34.0,28.4,30.37,ENE,68,1.1,2.5,80,0.00,,,0.00,WUHU216HW,2013-04-18 09:17:00,
2013-04-18 02:22:00,34.2,28.6,30.37,ESE,113,1.1,2.5,80,0.00,,,0.00,WUHU216HW,2013-04-18 09:22:00,
2013-04-18 02:27:00,34.4,28.8,30.37,East,90,1.1,2.5,80,0.00,,,0.00,WUHU216HW,2013-04-18 09:27:00,
2013-04-18 02:32:00,34.2,28.3,30.37,East,90,1.1,2.0,79,0.00,,,0.00,WUHU216HW,2013-04-18 09:32:00,
2013-04-18 02:37:00,33.8,27.6,30.37,East,90,0.0,1.3,78,0.00,,,0.00,WUHU216HW,2013-04-18 09:37:00,
2013-04-18 02:42:00,33.5,27.6,30.37,East,90,0.4,0.9,79,0.00,,,0.00,WUHU216HW,2013-04-18 09:42:00,
2013-04-18 02:47:00,33.5,27.6,30.37,East,90,0.0,0.9,79,0.00,,,0.00,WUHU216HW,2013-04-18 09:47:00,
2013-04-18 02:52:00,33.5,27.9,30.37,East,90,0.0,0.0,80,0.00,,,0.00,WUHU216HW,2013-04-18 09:52:00,
2013-04-18 02:57:00,33.5,27.9,30.37,East,90,0.0,0.0,80,0.00,,,0.00,WUHU216HW,2013-04-18 09:57:00,
2013-04-18 03:02:00,33.7,28.1,30.37,East,90,0.0,0.0,80,0.00,,,0.00,WUHU216HW,2013-04-18 10:02:00,
2013-04-18 03:07:00,33.8,28.3,30.37,East,90,0.0,0.0,80,0.00,,,0.00,WUHU216HW,2013-04-18 10:07:00,
2013-04-18 03:12:00,33.8,28.5,30.37,East,90,0.0,0.7,81,0.00,,,0.00,WUHU216HW,2013-04-18 10:12:00,
2013-04-18 03:17:00,33.8,28.5,30.37,East,90,0.0,0.7,81,0.00,,,0.00,WUHU216HW,2013-04-18 10:17:00,
2013-04-18 03:22:00,33.8,28.5,30.37,East,90,0.4,0.4,81,0.00,,,0.00,WUHU216HW,2013-04-18 10:22:00,
2013-04-18 03:27:00,34.0,28.4,30.37,East,90,0.0,0.4,80,0.00,,,0.00,WUHU216HW,2013-04-18 10:27:00,
2013-04-18 03:32:00,34.0,28.4,30.37,East,90,0.0,0.2,80,0.00,,,0.00,WUHU216HW,2013-04-18 10:32:00,
2013-04-18 03:37:00,34.2,28.6,30.38,East,90,0.0,0.0,80,0.00,,,0.00,WUHU216HW,2013-04-18 10:37:00,
2013-04-18 03:42:00,34.2,28.9,30.37,East,90,0.4,0.4,81,0.00,,,0.00,WUHU216HW,2013-04-18 10:42:00,
2013-04-18 03:47:00,34.2,28.9,30.37,East,90,0.2,0.4,81,0.00,,,0.00,WUHU216HW,2013-04-18 10:47:00,
2013-04-18 03:52:00,34.4,29.3,30.37,East,90,1.1,1.8,82,0.00,,,0.00,WUHU216HW,2013-04-18 10:52:00,
2013-04-18 03:57:00,34.2,28.9,30.37,East,90,0.4,1.8,81,0.00,,,0.00,WUHU216HW,2013-04-18 10:57:00,
2013-04-18 04:02:00,34.2,28.9,30.38,East,90,0.0,1.3,81,0.00,,,0.00,WUHU216HW,2013-04-18 11:02:00,
2013-04-18 04:07:00,34.4,29.1,30.37,East,90,0.2,0.9,81,0.00,,,0.00,WUHU216HW,2013-04-18 11:07:00,
2013-04-18 04:12:00,34.7,29.2,30.37,ENE,68,0.2,1.1,80,0.00,,,0.00,WUHU216HW,2013-04-18 11:12:00,
2013-04-18 04:17:00,34.9,28.7,30.37,East,90,1.6,2.0,78,0.00,,,0.00,WUHU216HW,2013-04-18 11:17:00,
2013-04-18 04:22:00,35.1,28.9,30.37,East,90,0.4,2.0,78,0.00,,,0.00,WUHU216HW,2013-04-18 11:22:00,
2013-04-18 04:27:00,35.1,28.9,30.37,East,90,2.0,2.2,78,0.00,,,0.00,WUHU216HW,2013-04-18 11:27:00,
2013-04-18 04:32:00,35.1,28.9,30.38,East,90,0.4,2.2,78,0.00,,,0.00,WUHU216HW,2013-04-18 11:32:00,
2013-04-18 04:37:00,35.3,28.7,30.38,East,90,0.4,2.2,77,0.00,,,0.00,WUHU216HW,2013-04-18 11:37:00,
2013-04-18 04:42:00,35.3,28.7,30.38,ENE,68,0.4,1.3,77,0.00,,,0.00,WUHU216HW,2013-04-18 11:42:00,
2013-04-18 04:47:00,35.3,28.7,30.38,ENE,68,0.4,1.6,77,0.00,,,0.00,WUHU216HW,2013-04-18 11:47:00,
2013-04-18 04:52:00,35.3,28.7,30.38,ENE,68,0.0,1.6,77,0.00,,,0.00,WUHU216HW,2013-04-18 11:52:00,
2013-04-18 04:57:00,35.1,28.9,30.38,ENE,68,0.0,0.4,78,0.00,,,0.00,WUHU216HW,2013-04-18 11:57:00,
2013-04-18 05:02:00,35.1,28.5,30.38,ENE,68,0.0,0.7,77,0.00,,,0.00,WUHU216HW,2013-04-18 12:02:00,
2013-04-18 05:07:00,35.1,28.5,30.38,ENE,68,0.4,0.7,77,0.00,,,0.00,WUHU216HW,2013-04-18 12:07:00,
2013-04-18 05:12:00,35.1,28.5,30.38,NE,45,1.3,1.8,77,0.00,,,0.00,WUHU216HW,2013-04-18 12:12:00,
2013-04-18 05:17:00,35.1,28.3,30.38,ENE,68,0.0,2.2,76,0.00,,,0.00,WUHU216HW,2013-04-18 12:17:00,
2013-04-18 05:22:00,35.1,28.3,30.38,ENE,68,0.9,2.2,76,0.00,,,0.00,WUHU216HW,2013-04-18 12:22:00,
2013-04-18 05:27:00,35.1,28.3,30.38,ENE,68,0.9,1.8,76,0.00,,,0.00,WUHU216HW,2013-04-18 12:27:00,
2013-04-18 05:32:00,35.1,28.3,30.38,ENE,68,0.2,1.8,76,0.00,,,0.00,WUHU216HW,2013-04-18 12:32:00,
2013-04-18 05:37:00,35.1,28.3,30.38,ENE,68,1.1,1.8,76,0.00,,,0.00,WUHU216HW,2013-04-18 12:37:00,
2013-04-18 05:42:00,35.1,28.3,30.38,ENE,68,1.3,1.8,76,0.00,,,0.00,WUHU216HW,2013-04-18 12:42:00,
2013-04-18 05:47:00,34.9,28.1,30.37,ENE,68,0.4,1.8,76,0.00,,,0.00,WUHU216HW,2013-04-18 12:47:00,
2013-04-18 05:52:00,34.9,28.1,30.38,ENE,68,0.4,1.1,76,0.00,,,0.00,WUHU216HW,2013-04-18 12:52:00,
2013-04-18 05:57:00,34.9,28.1,30.38,ENE,68,0.7,2.2,76,0.00,,,0.00,WUHU216HW,2013-04-18 12:57:00,
2013-04-18 06:02:00,34.9,28.1,30.37,ENE,68,1.8,2.2,76,0.00,,,0.00,WUHU216HW,2013-04-18 13:02:00,
2013-04-18 06:07:00,34.9,28.1,30.38,NE,45,2.5,3.1,76,0.00,,,0.00,WUHU216HW,2013-04-18 13:07:00,
2013-04-18 06:12:00,35.1,28.3,30.38,ENE,68,2.2,3.1,76,0.00,,,0.00,WUHU216HW,2013-04-18 13:12:00,
2013-04-18 06:17:00,35.3,28.5,30.37,East,90,1.8,4.5,76,0.00,,,0.00,WUHU216HW,2013-04-18 13:17:00,
2013-04-18 06:22:00,35.3,28.1,30.37,East,90,4.7,4.7,75,0.00,,,0.00,WUHU216HW,2013-04-18 13:22:00,
2013-04-18 06:27:00,35.1,27.9,30.38,ESE,113,3.4,4.7,75,0.00,,,0.00,WUHU216HW,2013-04-18 13:27:00,
2013-04-18 06:32:00,35.1,27.9,30.39,East,90,0.4,3.4,75,0.00,,,0.00,WUHU216HW,2013-04-18 13:32:00,
2013-04-18 06:37:00,35.3,28.1,30.39,East,90,0.9,1.6,75,0.00,,,0.00,WUHU216HW,2013-04-18 13:37:00,
2013-04-18 06:42:00,35.3,28.1,30.38,ENE,68,0.4,1.3,75,0.00,,,0.00,WUHU216HW,2013-04-18 13:42:00,
2013-04-18 06:47:00,35.5,28.3,30.39,South,180,1.1,1.8,75,0.00,,,0.00,WUHU216HW,2013-04-18 13:47:00,
2013-04-18 06:53:00,35.5,28.3,30.39,South,180,0.4,1.8,75,0.00,,,0.00,WUHU216HW,2013-04-18 13:53:00,
2013-04-18 07:07:00,35.5,28.3,30.39,South,180,0.4,2.5,75,0.00,,,0.00,WUHU216HW,2013-04-18 14:07:00,
2013-04-18 07:13:00,36.0,28.4,30.38,ENE,68,0.2,2.2,74,0.00,,,0.00,WUHU216HW,2013-04-18 14:13:00,
2013-04-18 07:18:00,36.4,28.5,30.38,NE,45,1.3,3.4,73,0.00,,,0.00,WUHU216HW,2013-04-18 14:18:00,
2013-04-18 07:23:00,36.5,29.0,30.38,East,90,1.8,3.4,74,0.00,,,0.00,WUHU216HW,2013-04-18 14:23:00,
2013-04-18 07:28:00,37.4,29.6,30.37,East,90,2.0,2.9,73,0.00,,,0.00,WUHU216HW,2013-04-18 14:28:00,
2013-04-18 07:33:00,40.0,30.3,30.37,ENE,68,3.8,3.8,68,0.00,,,0.00,WUHU216HW,2013-04-18 14:33:00,
2013-04-18 07:38:00,40.3,29.8,30.38,East,90,3.1,4.7,66,0.00,,,0.00,WUHU216HW,2013-04-18 14:38:00,
2013-04-18 07:43:00,40.0,29.8,30.38,East,90,1.1,4.7,67,0.00,,,0.00,WUHU216HW,2013-04-18 14:43:00,
2013-04-18 07:48:00,39.8,29.6,30.38,ENE,68,2.2,3.8,67,0.00,,,0.00,WUHU216HW,2013-04-18 14:48:00,
2013-04-18 07:53:00,40.0,30.3,30.38,East,90,1.3,3.4,68,0.00,,,0.00,WUHU216HW,2013-04-18 14:53:00,
2013-04-18 07:58:00,40.0,29.8,30.38,ENE,68,2.5,4.0,67,0.00,,,0.00,WUHU216HW,2013-04-18 14:58:00,
2013-04-18 08:03:00,40.3,30.6,30.38,ENE,68,3.4,4.0,68,0.00,,,0.00,WUHU216HW,2013-04-18 15:03:00,
2013-04-18 08:08:00,40.9,30.7,30.38,ENE,68,2.5,4.0,67,0.00,,,0.00,WUHU216HW,2013-04-18 15:08:00,
2013-04-18 08:13:00,41.2,31.1,30.38,East,90,4.7,4.7,67,0.00,,,0.00,WUHU216HW,2013-04-18 15:13:00,
2013-04-18 08:18:00,41.2,30.7,30.38,ENE,68,4.9,4.9,66,0.00,,,0.00,WUHU216HW,2013-04-18 15:18:00,
2013-04-18 08:23:00,41.8,31.6,30.39,East,90,4.7,5.1,67,0.00,,,0.00,WUHU216HW,2013-04-18 15:23:00,
2013-04-18 08:28:00,42.8,31.9,30.39,East,90,4.3,5.1,65,0.00,,,0.00,WUHU216HW,2013-04-18 15:28:00,
2013-04-18 08:33:00,43.7,32.0,30.39,East,90,3.4,4.9,63,0.00,,,0.00,WUHU216HW,2013-04-18 15:33:00,
2013-04-18 08:38:00,44.1,32.0,30.39,East,90,1.8,4.9,62,0.00,,,0.00,WUHU216HW,2013-04-18 15:38:00,
2013-04-18 08:43:00,45.2,33.0,30.39,East,90,5.1,5.1,62,0.00,,,0.00,WUHU216HW,2013-04-18 15:43:00,
2013-04-18 08:48:00,45.4,32.3,30.39,South,180,3.4,5.1,60,0.00,,,0.00,WUHU216HW,2013-04-18 15:48:00,
2013-04-18 08:53:00,45.7,32.2,30.38,South,180,2.5,4.7,59,0.00,,,0.00,WUHU216HW,2013-04-18 15:53:00,
2013-04-18 08:58:00,45.7,32.7,30.39,ENE,68,1.1,4.7,60,0.00,,,0.00,WUHU216HW,2013-04-18 15:58:00,
2013-04-18 09:03:00,45.9,32.4,30.39,South,180,2.9,5.4,59,0.00,,,0.00,WUHU216HW,2013-04-18 16:03:00,
2013-04-18 09:08:00,45.5,32.5,30.38,SSE,158,1.1,5.4,60,0.00,,,0.00,WUHU216HW,2013-04-18 16:08:00,
2013-04-18 09:13:00,45.7,32.7,30.39,SSE,158,2.5,6.0,60,0.00,,,0.00,WUHU216HW,2013-04-18 16:13:00,
2013-04-18 09:18:00,46.1,32.5,30.39,ENE,68,1.3,6.0,59,0.00,,,0.00,WUHU216HW,2013-04-18 16:18:00,
2013-04-18 09:23:00,47.3,33.3,30.38,ENE,68,4.9,4.9,58,0.00,,,0.00,WUHU216HW,2013-04-18 16:23:00,
2013-04-18 09:28:00,47.9,33.9,30.38,ENE,68,3.4,4.9,58,0.00,,,0.00,WUHU216HW,2013-04-18 16:28:00,
2013-04-18 09:33:00,49.0,33.5,30.38,SSE,158,3.4,3.8,55,0.00,,,0.00,WUHU216HW,2013-04-18 16:33:00,
2013-04-18 09:38:00,49.3,34.2,30.38,South,180,2.2,3.4,56,0.00,,,0.00,WUHU216HW,2013-04-18 16:38:00,
2013-04-18 09:43:00,49.7,34.1,30.38,ESE,113,1.8,3.8,55,0.00,,,0.00,WUHU216HW,2013-04-18 16:43:00,
2013-04-18 09:48:00,49.9,34.3,30.38,East,90,1.8,4.5,55,0.00,,,0.00,WUHU216HW,2013-04-18 16:48:00,
2013-04-18 09:53:00,50.0,34.0,30.38,ESE,113,1.1,4.5,54,0.00,,,0.00,WUHU216HW,2013-04-18 16:53:00,
2013-04-18 09:58:00,50.2,33.8,30.38,WNW,293,2.0,3.6,53,0.00,,,0.00,WUHU216HW,2013-04-18 16:58:00,
2013-04-18 10:03:00,50.2,33.8,30.37,East,90,3.1,6.5,53,0.00,,,0.00,WUHU216HW,2013-04-18 17:03:00,
2013-04-18 10:08:00,50.8,34.2,30.37,North,0,1.3,6.5,53,0.00,,,0.00,WUHU216HW,2013-04-18 17:08:00,
2013-04-18 10:13:00,50.6,34.0,30.37,WNW,293,0.4,3.8,53,0.00,,,0.00,WUHU216HW,2013-04-18 17:13:00,
2013-04-18 10:18:00,51.3,34.3,30.37,South,180,4.0,4.7,52,0.00,,,0.00,WUHU216HW,2013-04-18 17:18:00,
2013-04-18 10:23:00,50.9,33.5,30.37,SSW,203,1.1,4.7,51,0.00,,,0.00,WUHU216HW,2013-04-18 17:23:00,
2013-04-18 10:28:00,51.5,34.4,30.37,ENE,68,3.8,4.3,52,0.00,,,0.00,WUHU216HW,2013-04-18 17:28:00,
2013-04-18 10:33:00,52.0,34.0,30.37,ENE,68,0.2,4.5,50,0.00,,,0.00,WUHU216HW,2013-04-18 17:33:00,
2013-04-18 10:38:00,52.6,34.5,30.37,East,90,2.5,4.7,50,0.00,,,0.00,WUHU216HW,2013-04-18 17:38:00,
2013-04-18 10:43:00,52.0,34.0,30.37,NNE,23,2.9,4.7,50,0.00,,,0.00,WUHU216HW,2013-04-18 17:43:00,
2013-04-18 10:48:00,52.2,34.2,30.37,East,90,2.5,3.4,50,0.00,,,0.00,WUHU216HW,2013-04-18 17:48:00,
2013-04-18 10:53:00,51.8,33.8,30.37,NE,45,3.4,3.4,50,0.00,,,0.00,WUHU216HW,2013-04-18 17:53:00,
2013-04-18 10:58:00,51.8,33.8,30.37,ENE,68,4.3,4.3,50,0.00,,,0.00,WUHU216HW,2013-04-18 17:58:00,
2013-04-18 11:03:00,51.8,34.3,30.37,ESE,113,3.4,4.7,51,0.00,,,0.00,WUHU216HW,2013-04-18 18:03:00,
2013-04-18 11:08:00,52.6,34.5,30.37,SE,135,5.4,5.4,50,0.00,,,0.00,WUHU216HW,2013-04-18 18:08:00,
2013-04-18 11:13:00,53.5,35.3,30.37,ENE,68,2.0,5.4,50,0.00,,,0.00,WUHU216HW,2013-04-18 18:13:00,
2013-04-18 11:18:00,54.2,35.4,30.37,South,180,2.0,4.5,49,0.00,,,0.00,WUHU216HW,2013-04-18 18:18:00,
2013-04-18 11:23:00,54.2,35.9,30.37,SSW,203,0.2,3.1,50,0.00,,,0.00,WUHU216HW,2013-04-18 18:23:00,
2013-04-18 11:28:00,54.0,35.2,30.37,SSW,203,5.4,7.8,49,0.00,,,0.00,WUHU216HW,2013-04-18 18:28:00,
2013-04-18 11:33:00,54.4,35.0,30.37,SW,225,0.2,7.8,48,0.00,,,0.00,WUHU216HW,2013-04-18 18:33:00,
2013-04-18 11:38:00,55.1,35.6,30.37,WNW,293,2.5,4.3,48,0.00,,,0.00,WUHU216HW,2013-04-18 18:38:00,
2013-04-18 11:43:00,55.4,35.4,30.37,SW,225,0.7,4.0,47,0.00,,,0.00,WUHU216HW,2013-04-18 18:43:00,
2013-04-18 11:48:00,55.6,36.2,30.36,North,0,3.4,3.4,48,0.00,,,0.00,WUHU216HW,2013-04-18 18:48:00,
2013-04-18 11:53:00,55.3,35.8,30.36,ENE,68,2.0,4.5,48,0.00,,,0.00,WUHU216HW,2013-04-18 18:53:00,
2013-04-18 11:58:00,55.1,35.1,30.36,North,0,2.5,5.4,47,0.00,,,0.00,WUHU216HW,2013-04-18 18:58:00,
2013-04-18 12:03:00,55.4,35.4,30.36,NNW,338,1.8,5.4,47,0.00,,,0.00,WUHU216HW,2013-04-18 19:03:00,
2013-04-18 12:08:00,56.2,36.1,30.36,East,90,2.5,5.1,47,0.00,,,0.00,WUHU216HW,2013-04-18 19:08:00,
2013-04-18 12:13:00,56.5,36.5,30.36,ENE,68,0.9,4.5,47,0.00,,,0.00,WUHU216HW,2013-04-18 19:13:00,
2013-04-18 12:18:00,56.5,35.9,30.35,NNE,23,4.7,4.7,46,0.00,,,0.00,WUHU216HW,2013-04-18 19:18:00,
2013-04-18 12:23:00,56.7,36.1,30.35,North,0,3.4,4.7,46,0.00,,,0.00,WUHU216HW,2013-04-18 19:23:00,
2013-04-18 12:28:00,56.3,36.8,30.35,South,180,2.7,5.1,48,0.00,,,0.00,WUHU216HW,2013-04-18 19:28:00,
2013-04-18 12:33:00,57.1,36.4,30.35,WNW,293,4.7,5.4,46,0.00,,,0.00,WUHU216HW,2013-04-18 19:33:00,
2013-04-18 12:38:00,57.2,36.5,30.35,North,0,1.3,5.4,46,0.00,,,0.00,WUHU216HW,2013-04-18 19:38:00,
2013-04-18 12:43:00,58.0,36.6,30.35,East,90,1.6,3.4,45,0.00,,,0.00,WUHU216HW,2013-04-18 19:43:00,
2013-04-18 12:48:00,58.0,36.6,30.35,NNE,23,4.5,6.9,45,0.00,,,0.00,WUHU216HW,2013-04-18 19:48:00,
2013-04-18 12:53:00,57.2,36.5,30.35,ENE,68,0.9,6.9,46,0.00,,,0.00,WUHU216HW,2013-04-18 19:53:00,
2013-04-18 12:58:00,58.0,37.3,30.35,SSW,203,2.5,5.8,46,0.00,,,0.00,WUHU216HW,2013-04-18 19:58:00,
2013-04-18 13:03:00,58.9,37.4,30.35,WNW,293,2.9,6.0,45,0.00,,,0.00,WUHU216HW,2013-04-18 20:03:00,
2013-04-18 13:08:00,59.2,37.2,30.35,WNW,293,4.9,6.0,44,0.00,,,0.00,WUHU216HW,2013-04-18 20:08:00,
2013-04-18 13:13:00,59.2,37.2,30.34,WNW,293,1.6,5.6,44,0.00,,,0.00,WUHU216HW,2013-04-18 20:13:00,
2013-04-18 13:18:00,58.5,36.5,30.35,WNW,293,8.1,8.1,44,0.00,,,0.00,WUHU216HW,2013-04-18 20:18:00,
2013-04-18 13:23:00,58.5,37.2,30.34,ESE,113,4.0,8.1,45,0.00,,,0.00,WUHU216HW,2013-04-18 20:23:00,
2013-04-18 13:28:00,59.0,37.1,30.34,NNE,23,6.3,6.3,44,0.00,,,0.00,WUHU216HW,2013-04-18 20:28:00,
2013-04-18 13:33:00,59.0,37.6,30.34,NNE,23,2.5,6.3,45,0.00,,,0.00,WUHU216HW,2013-04-18 20:33:00,
2013-04-18 13:38:00,58.7,37.3,30.34,East,90,0.4,4.9,45,0.00,,,0.00,WUHU216HW,2013-04-18 20:38:00,
2013-04-18 13:43:00,58.1,37.4,30.34,NW,315,2.0,5.6,46,0.00,,,0.00,WUHU216HW,2013-04-18 20:43:00,
2013-04-18 13:48:00,58.0,36.6,30.34,East,90,2.0,5.6,45,0.00,,,0.00,WUHU216HW,2013-04-18 20:48:00,
2013-04-18 13:53:00,57.4,36.7,30.34,ENE,68,2.5,5.1,46,0.00,,,0.00,WUHU216HW,2013-04-18 20:53:00,
2013-04-18 13:58:00,57.4,37.9,30.34,NNW,338,2.7,5.1,48,0.00,,,0.00,WUHU216HW,2013-04-18 20:58:00,
2013-04-18 14:03:00,58.0,37.8,30.34,NNW,338,3.4,5.1,47,0.00,,,0.00,WUHU216HW,2013-04-18 21:03:00,
2013-04-18 14:08:00,58.5,37.2,30.34,North,0,1.6,5.6,45,0.00,,,0.00,WUHU216HW,2013-04-18 21:08:00,
2013-04-18 14:13:00,59.6,38.1,30.34,NNW,338,1.8,5.6,45,0.00,,,0.00,WUHU216HW,2013-04-18 21:13:00,
2013-04-18 14:18:00,59.6,38.1,30.34,NNE,23,5.4,5.6,45,0.00,,,0.00,WUHU216HW,2013-04-18 21:18:00,
2013-04-18 14:23:00,59.2,37.8,30.34,NNE,23,6.5,9.6,45,0.00,,,0.00,WUHU216HW,2013-04-18 21:23:00,
2013-04-18 14:28:00,59.4,38.0,30.34,NW,315,3.1,9.6,45,0.00,,,0.00,WUHU216HW,2013-04-18 21:28:00,
2013-04-18 14:33:00,58.9,37.4,30.34,ENE,68,3.8,8.3,45,0.00,,,0.00,WUHU216HW,2013-04-18 21:33:00,
2013-04-18 14:38:00,58.9,38.6,30.33,NW,315,1.8,8.3,47,0.00,,,0.00,WUHU216HW,2013-04-18 21:38:00,
2013-04-18 14:43:00,59.6,38.1,30.34,NNW,338,7.6,8.5,45,0.00,,,0.00,WUHU216HW,2013-04-18 21:43:00,
2013-04-18 14:48:00,60.1,37.4,30.34,North,0,4.7,8.5,43,0.00,,,0.00,WUHU216HW,2013-04-18 21:48:00,
2013-04-18 14:53:00,59.6,37.5,30.33,NNE,23,2.2,4.7,44,0.00,,,0.00,WUHU216HW,2013-04-18 21:53:00,
2013-04-18 14:58:00,59.4,38.0,30.33,WNW,293,3.8,4.0,45,0.00,,,0.00,WUHU216HW,2013-04-18 21:58:00,
2013-04-18 15:03:00,59.4,38.5,30.33,NNW,338,4.9,4.9,46,0.00,,,0.00,WUHU216HW,2013-04-18 22:03:00,
2013-04-18 15:08:00,59.8,38.3,30.33,North,0,3.1,4.9,45,0.00,,,0.00,WUHU216HW,2013-04-18 22:08:00,
2013-04-18 15:13:00,60.5,38.9,30.33,WNW,293,2.5,4.7,45,0.00,,,0.00,WUHU216HW,2013-04-18 22:13:00,
2013-04-18 15:18:00,60.1,38.0,30.33,SW,225,3.4,5.6,44,0.00,,,0.00,WUHU216HW,2013-04-18 22:18:00,
2013-04-18 15:23:00,60.5,38.9,30.32,NNW,338,4.5,5.6,45,0.00,,,0.00,WUHU216HW,2013-04-18 22:23:00,
2013-04-18 15:28:00,60.8,38.1,30.32,NE,45,1.8,4.7,43,0.00,,,0.00,WUHU216HW,2013-04-18 22:28:00,
2013-04-18 15:33:00,60.7,38.5,30.32,SW,225,1.1,4.7,44,0.00,,,0.00,WUHU216HW,2013-04-18 22:33:00,
2013-04-18 15:38:00,60.5,38.3,30.32,WNW,293,1.8,4.5,44,0.00,,,0.00,WUHU216HW,2013-04-18 22:38:00,
2013-04-18 15:43:00,60.7,38.5,30.32,SW,225,1.1,4.5,44,0.00,,,0.00,WUHU216HW,2013-04-18 22:43:00,
2013-04-18 15:48:00,61.2,39.6,30.32,SW,225,2.9,3.8,45,0.00,,,0.00,WUHU216HW,2013-04-18 22:48:00,
2013-04-18 15:53:00,61.7,39.5,30.32,WSW,248,1.3,3.4,44,0.00,,,0.00,WUHU216HW,2013-04-18 22:53:00,
2013-04-18 15:58:00,62.5,39.5,30.31,WNW,293,0.2,3.4,43,0.00,,,0.00,WUHU216HW,2013-04-18 22:58:00,
2013-04-18 16:03:00,62.3,39.4,30.31,SSW,203,2.5,3.4,43,0.00,,,0.00,WUHU216HW,2013-04-18 23:03:00,
2013-04-18 16:08:00,62.3,39.4,30.31,SW,225,0.4,3.4,43,0.00,,,0.00,WUHU216HW,2013-04-18 23:08:00,
2013-04-18 16:13:00,63.0,39.4,30.30,WNW,293,6.3,6.9,42,0.00,,,0.00,WUHU216HW,2013-04-18 23:13:00,
2013-04-18 16:18:00,64.3,40.1,30.30,NNW,338,6.7,6.9,41,0.00,,,0.00,WUHU216HW,2013-04-18 23:18:00,
2013-04-18 16:23:00,64.1,39.2,30.30,SW,225,2.5,6.7,40,0.00,,,0.00,WUHU216HW,2013-04-18 23:23:00,
2013-04-18 16:28:00,63.7,39.5,30.30,West,270,3.6,6.5,41,0.00,,,0.00,WUHU216HW,2013-04-18 23:28:00,
2013-04-18 16:33:00,63.0,38.9,30.30,NW,315,1.3,6.5,41,0.00,,,0.00,WUHU216HW,2013-04-18 23:33:00,
2013-04-18 16:38:00,63.7,40.2,30.29,WNW,293,2.9,5.4,42,0.00,,,0.00,WUHU216HW,2013-04-18 23:38:00,
2013-04-18 16:43:00,63.4,39.8,30.29,WNW,293,2.0,5.8,42,0.00,,,0.00,WUHU216HW,2013-04-18 23:43:00,
2013-04-18 16:48:00,63.7,39.5,30.29,WNW,293,1.1,5.8,41,0.00,,,0.00,WUHU216HW,2013-04-18 23:48:00,
2013-04-18 16:53:00,63.4,39.3,30.30,NW,315,2.5,5.1,41,0.00,,,0.00,WUHU216HW,2013-04-18 23:53:00,
2013-04-18 16:58:00,62.8,39.3,30.29,NNW,338,2.9,4.9,42,0.00,,,0.00,WUHU216HW,2013-04-18 23:58:00,
2013-04-18 17:03:00,62.6,39.7,30.30,WNW,293,1.6,4.9,43,0.00,,,0.00,WUHU216HW,2013-04-19 00:03:00,
2013-04-18 17:08:00,62.1,39.8,30.29,WNW,293,1.1,2.9,44,0.00,,,0.00,WUHU216HW,2013-04-19 00:08:00,
2013-04-18 17:13:00,61.7,39.5,30.30,NW,315,1.1,4.7,44,0.00,,,0.00,WUHU216HW,2013-04-19 00:13:00,
2013-04-18 17:18:00,61.0,39.4,30.30,WNW,293,4.3,4.7,45,0.00,,,0.00,WUHU216HW,2013-04-19 00:18:00,
2013-04-18 17:23:00,60.8,40.4,30.29,SW,225,12.3,12.3,47,0.00,,,0.00,WUHU216HW,2013-04-19 00:23:00,
2013-04-18 17:28:00,60.7,40.2,30.30,West,270,5.1,12.3,47,0.00,,,0.00,WUHU216HW,2013-04-19 00:28:00,
2013-04-18 17:33:00,60.5,40.1,30.30,SW,225,10.3,10.7,47,0.00,,,0.00,WUHU216HW,2013-04-19 00:33:00,
2013-04-18 17:38:00,60.1,39.8,30.30,NNW,338,6.3,10.3,47,0.00,,,0.00,WUHU216HW,2013-04-19 00:38:00,
2013-04-18 17:43:00,60.5,40.1,30.30,WNW,293,10.5,10.5,47,0.00,,,0.00,WUHU216HW,2013-04-19 00:43:00,
2013-04-18 17:48:00,59.8,40.0,30.30,WNW,293,4.5,10.5,48,0.00,,,0.00,WUHU216HW,2013-04-19 00:48:00,
2013-04-18 17:53:00,59.4,40.2,30.30,SSW,203,7.8,8.5,49,0.00,,,0.00,WUHU216HW,2013-04-19 00:53:00,
2013-04-18 17:58:00,59.4,40.2,30.30,SSW,203,4.0,8.5,49,0.00,,,0.00,WUHU216HW,2013-04-19 00:58:00,
2013-04-18 18:03:00,59.2,40.1,30.30,SW,225,6.9,6.9,49,0.00,,,0.00,WUHU216HW,2013-04-19 01:03:00,
2013-04-18 18:08:00,58.9,39.8,30.30,WSW,248,9.8,9.8,49,0.00,,,0.00,WUHU216HW,2013-04-19 01:08:00,
2013-04-18 18:13:00,58.5,40.1,30.30,NW,315,7.8,9.8,50,0.00,,,0.00,WUHU216HW,2013-04-19 01:13:00,
2013-04-18 18:18:00,58.1,40.1,30.30,WSW,248,6.9,8.5,51,0.00,,,0.00,WUHU216HW,2013-04-19 01:18:00,
2013-04-18 18:23:00,57.4,39.5,30.30,NW,315,4.9,8.5,51,0.00,,,0.00,WUHU216HW,2013-04-19 01:23:00,
2013-04-18 18:28:00,57.2,39.8,30.30,WNW,293,5.4,7.8,52,0.00,,,0.00,WUHU216HW,2013-04-19 01:28:00,
2013-04-18 18:33:00,56.9,40.0,30.30,NW,315,2.9,7.8,53,0.00,,,0.00,WUHU216HW,2013-04-19 01:33:00,
2013-04-18 18:38:00,56.7,39.8,30.30,NW,315,3.4,5.8,53,0.00,,,0.00,WUHU216HW,2013-04-19 01:38:00,
2013-04-18 18:43:00,56.3,39.9,30.30,WSW,248,2.5,6.5,54,0.00,,,0.00,WUHU216HW,2013-04-19 01:43:00,
2013-04-18 18:48:00,56.0,39.5,30.30,SW,225,5.1,6.9,54,0.00,,,0.00,WUHU216HW,2013-04-19 01:48:00,
2013-04-18 18:53:00,55.6,39.2,30.30,WNW,293,5.1,6.9,54,0.00,,,0.00,WUHU216HW,2013-04-19 01:53:00,
2013-04-18 18:58:00,55.3,39.2,30.30,SW,225,3.1,6.9,55,0.00,,,0.00,WUHU216HW,2013-04-19 01:58:00,
2013-04-18 19:03:00,55.3,39.2,30.29,SW,225,4.0,6.9,55,0.00,,,0.00,WUHU216HW,2013-04-19 02:03:00,
2013-04-18 19:08:00,55.1,39.1,30.30,NW,315,2.2,4.9,55,0.00,,,0.00,WUHU216HW,2013-04-19 02:08:00,
2013-04-18 19:13:00,54.9,39.4,30.29,WNW,293,6.3,6.3,56,0.00,,,0.00,WUHU216HW,2013-04-19 02:13:00,
2013-04-18 19:18:00,54.9,39.4,30.29,NW,315,4.7,6.3,56,0.00,,,0.00,WUHU216HW,2013-04-19 02:18:00,
2013-04-18 19:23:00,54.7,39.2,30.29,WSW,248,3.6,7.6,56,0.00,,,0.00,WUHU216HW,2013-04-19 02:23:00,
2013-04-18 19:28:00,54.7,39.2,30.29,SW,225,3.4,7.6,56,0.00,,,0.00,WUHU216HW,2013-04-19 02:28:00,
2013-04-18 19:33:00,54.5,39.5,30.29,WSW,248,2.5,3.6,57,0.00,,,0.00,WUHU216HW,2013-04-19 02:33:00,
2013-04-18 19:38:00,54.4,39.9,30.29,WNW,293,2.5,4.0,58,0.00,,,0.00,WUHU216HW,2013-04-19 02:38:00,
2013-04-18 19:43:00,54.2,39.7,30.30,SW,225,4.0,4.0,58,0.00,,,0.00,WUHU216HW,2013-04-19 02:43:00,
2013-04-18 19:48:00,54.0,40.0,30.29,NW,315,1.1,4.0,59,0.00,,,0.00,WUHU216HW,2013-04-19 02:48:00,
2013-04-18 19:53:00,53.8,39.9,30.29,SW,225,0.9,5.4,59,0.00,,,0.00,WUHU216HW,2013-04-19 02:53:00,
2013-04-18 19:58:00,53.5,40.0,30.29,WSW,248,5.1,5.4,60,0.00,,,0.00,WUHU216HW,2013-04-19 02:58:00,
2013-04-18 20:03:00,53.3,39.8,30.29,NW,315,2.0,6.5,60,0.02,,,0.00,WUHU216HW,2013-04-19 03:03:00,
2013-04-18 20:08:00,53.1,39.6,30.29,WNW,293,1.1,6.5,60,0.02,,,0.02,WUHU216HW,2013-04-19 03:08:00,
2013-04-18 20:13:00,52.9,39.8,30.30,WSW,248,4.0,5.4,61,0.02,,,0.02,WUHU216HW,2013-04-19 03:13:00,
2013-04-18 20:18:00,52.7,39.6,30.30,NW,315,4.3,7.4,61,0.02,,,0.02,WUHU216HW,2013-04-19 03:18:00,
2013-04-18 20:23:00,52.6,39.9,30.30,NW,315,5.8,10.7,62,0.02,,,0.02,WUHU216HW,2013-04-19 03:23:00,
2013-04-18 20:28:00,52.4,39.7,30.30,SW,225,6.5,10.7,62,0.02,,,0.02,WUHU216HW,2013-04-19 03:28:00,
2013-04-18 20:33:00,52.2,40.0,30.30,NW,315,6.3,8.5,63,0.02,,,0.02,WUHU216HW,2013-04-19 03:33:00,
2013-04-18 20:38:00,52.2,39.5,30.30,SW,225,6.9,8.1,62,0.02,,,0.02,WUHU216HW,2013-04-19 03:38:00,
2013-04-18 20:43:00,52.0,39.3,30.30,NW,315,6.3,8.5,62,0.02,,,0.02,WUHU216HW,2013-04-19 03:43:00,
2013-04-18 20:48:00,52.0,39.8,30.30,SW,225,3.8,8.5,63,0.02,,,0.02,WUHU216HW,2013-04-19 03:48:00,
2013-04-18 20:53:00,52.0,39.8,30.30,NW,315,4.7,6.3,63,0.02,,,0.02,WUHU216HW,2013-04-19 03:53:00,
2013-04-18 20:58:00,52.0,39.8,30.30,WNW,293,3.4,5.8,63,0.00,,,0.02,WUHU216HW,2013-04-19 03:58:00,
2013-04-18 21:03:00,51.8,39.2,30.30,SW,225,4.9,6.7,62,0.00,,,0.02,WUHU216HW,2013-04-19 04:03:00,
2013-04-18 21:08:00,52.0,39.8,30.30,WNW,293,4.7,6.7,63,0.00,,,0.02,WUHU216HW,2013-04-19 04:08:00,
2013-04-18 21:13:00,52.0,39.8,30.31,SW,225,8.3,8.7,63,0.00,,,0.02,WUHU216HW,2013-04-19 04:13:00,
2013-04-18 21:18:00,52.0,39.8,30.31,SW,225,4.9,8.7,63,0.00,,,0.02,WUHU216HW,2013-04-19 04:18:00,
2013-04-18 21:23:00,51.8,39.6,30.31,SW,225,5.4,6.7,63,0.00,,,0.02,WUHU216HW,2013-04-19 04:23:00,
2013-04-18 21:28:00,51.8,39.6,30.31,WNW,293,7.8,7.8,63,0.00,,,0.02,WUHU216HW,2013-04-19 04:28:00,
2013-04-18 21:33:00,51.8,39.6,30.31,NW,315,6.3,7.8,63,0.00,,,0.02,WUHU216HW,2013-04-19 04:33:00,
2013-04-18 21:38:00,51.8,39.6,30.31,NW,315,9.8,9.8,63,0.00,,,0.02,WUHU216HW,2013-04-19 04:38:00,
2013-04-18 21:42:00,51.8,39.6,30.31,WNW,293,4.5,9.8,63,0.00,,,0.02,WUHU216HW,2013-04-19 04:42:00,
2013-04-18 21:47:00,51.8,40.0,30.31,SW,225,5.8,11.4,64,0.00,,,0.02,WUHU216HW,2013-04-19 04:47:00,
2013-04-18 21:52:00,51.8,39.6,30.31,NW,315,5.4,11.4,63,0.00,,,0.02,WUHU216HW,2013-04-19 04:52:00,
2013-04-18 21:57:00,51.7,39.9,30.31,WSW,248,2.5,11.2,64,0.00,,,0.02,WUHU216HW,2013-04-19 04:57:00,
2013-04-18 22:02:00,51.5,39.7,30.31,WNW,293,6.0,10.5,64,0.00,,,0.02,WUHU216HW,2013-04-19 05:02:00,
2013-04-18 22:07:00,51.5,39.7,30.31,NW,315,6.5,9.8,64,0.00,,,0.02,WUHU216HW,2013-04-19 05:07:00,
2013-04-18 22:12:00,51.3,39.9,30.30,WNW,293,5.6,6.5,65,0.00,,,0.02,WUHU216HW,2013-04-19 05:12:00,
2013-04-18 22:17:00,51.3,39.9,30.30,WNW,293,2.5,7.6,65,0.00,,,0.02,WUHU216HW,2013-04-19 05:17:00,
2013-04-18 22:22:00,51.1,39.7,30.30,WNW,293,3.4,7.6,65,0.00,,,0.02,WUHU216HW,2013-04-19 05:22:00,
2013-04-18 22:27:00,51.1,39.7,30.30,WNW,293,3.8,6.0,65,0.00,,,0.02,WUHU216HW,2013-04-19 05:27:00,
2013-04-18 22:32:00,50.9,39.5,30.30,NW,315,8.5,8.5,65,0.00,,,0.02,WUHU216HW,2013-04-19 05:32:00,
2013-04-18 22:37:00,50.9,39.5,30.30,WNW,293,2.7,8.5,65,0.00,,,0.02,WUHU216HW,2013-04-19 05:37:00,
2013-04-18 22:42:00,50.9,39.5,30.30,NW,315,4.7,7.2,65,0.00,,,0.02,WUHU216HW,2013-04-19 05:42:00,
2013-04-18 22:47:00,50.9,39.5,30.30,WNW,293,6.9,8.3,65,0.00,,,0.02,WUHU216HW,2013-04-19 05:47:00,
2013-04-18 22:52:00,50.9,39.5,30.30,South,180,4.0,9.2,65,0.00,,,0.02,WUHU216HW,2013-04-19 05:52:00,
2013-04-18 22:57:00,50.8,39.8,30.30,WNW,293,5.1,9.2,66,0.00,,,0.02,WUHU216HW,2013-04-19 05:57:00,
2013-04-18 23:02:00,50.8,39.8,30.30,WNW,293,1.6,7.6,66,0.00,,,0.02,WUHU216HW,2013-04-19 06:02:00,
2013-04-18 23:07:00,50.8,40.2,30.29,NW,315,8.5,8.5,67,0.00,,,0.02,WUHU216HW,2013-04-19 06:07:00,
2013-04-18 23:12:00,50.8,40.2,30.29,WNW,293,6.5,8.7,67,0.00,,,0.02,WUHU216HW,2013-04-19 06:12:00,
2013-04-18 23:17:00,50.6,40.1,30.29,SSW,203,4.5,8.7,67,0.00,,,0.02,WUHU216HW,2013-04-19 06:17:00,
2013-04-18 23:22:00,50.8,39.8,30.29,WNW,293,10.5,10.5,66,0.00,,,0.02,WUHU216HW,2013-04-19 06:22:00,
2013-04-18 23:27:00,50.9,39.5,30.28,NW,315,5.6,12.1,65,0.00,,,0.02,WUHU216HW,2013-04-19 06:27:00,
2013-04-18 23:32:00,50.9,39.5,30.28,NW,315,5.6,15.4,65,0.00,,,0.02,WUHU216HW,2013-04-19 06:32:00,
2013-04-18 23:37:00,50.9,39.5,30.28,SW,225,9.2,15.4,65,0.00,,,0.02,WUHU216HW,2013-04-19 06:37:00,
2013-04-18 23:42:00,51.1,39.7,30.28,WNW,293,4.9,9.2,65,0.00,,,0.02,WUHU216HW,2013-04-19 06:42:00,
2013-04-18 23:47:00,50.9,39.5,30.28,WSW,248,4.5,9.2,65,0.00,,,0.02,WUHU216HW,2013-04-19 06:47:00,
2013-04-18 23:52:00,50.9,39.5,30.28,NW,315,5.1,7.6,65,0.00,,,0.02,WUHU216HW,2013-04-19 06:52:00,
2013-04-18 23:57:00,50.9,39.5,30.28,WNW,293,2.0,6.7,65,0.00,,,0.02,WUHU216HW,2013-04-19 06:57:00,